Time;durP1;ratioP1;P1;durP2;ratioP2;P2;SDS_P1;SDS_P2;PMS_P1;PMS_P2;Temp;Humidity;BMP_temperature;BMP_pressure;BME280_temperature;BME280_humidity;BME280_pressure;Samples;Min_cycle;Max_cycle;Signal;HPM_P1;HPM_P2
2023/09/15 00:00:39;;;;;;;;;4.00;4.00;;;;;28.85;41.79;101579.34;5037331;28;45272;-82
2023/09/15 00:03:05;;;;;;;;;3.00;3.00;;;;;28.86;41.64;101582.81;5036740;28;46036;-81
2023/09/15 00:05:33;;;;;;;;;3.33;3.33;;;;;28.87;41.54;101578.28;5037140;28;45397;-82
2023/09/15 00:07:59;;;;;;;;;4.00;4.00;;;;;28.77;41.58;101563.50;5037426;28;45436;-82
2023/09/15 00:10:26;;;;;;;;;3.67;3.67;;;;;28.74;41.59;101559.38;5037214;28;45572;-81
2023/09/15 00:12:51;;;;;;;;;3.67;3.67;;;;;28.77;41.54;101558.13;5036961;28;46158;-81
2023/09/15 00:15:17;;;;;;;;;4.67;4.00;;;;;28.85;41.56;101571.31;5036950;28;45341;-81
2023/09/15 00:17:43;;;;;;;;;4.00;4.00;;;;;28.85;41.34;101574.00;5036883;28;45326;-81
2023/09/15 00:20:13;;;;;;;;;4.00;4.00;;;;;28.84;41.66;101563.47;5036860;28;45293;-81
2023/09/15 00:22:49;;;;;;;;;5.00;3.00;;;;;28.87;41.42;101573.75;5037038;28;45477;-81
2023/09/15 00:25:22;;;;;;;;;5.67;3.33;;;;;28.88;41.47;101567.38;5036984;28;45332;-80
2023/09/15 00:27:51;;;;;;;;;3.67;3.67;;;;;28.91;41.56;101571.50;5036430;28;45293;-81
2023/09/15 00:30:19;;;;;;;;;4.00;4.00;;;;;28.87;41.48;101570.25;5035619;28;45518;-81
2023/09/15 00:32:46;;;;;;;;;4.00;3.00;;;;;28.87;41.75;101568.41;5036425;28;46232;-81
2023/09/15 00:35:18;;;;;;;;;3.67;3.67;;;;;28.72;41.44;101540.03;5018755;28;45512;-81
2023/09/15 00:37:45;;;;;;;;;4.00;4.00;;;;;28.87;41.90;101555.03;5018863;28;45293;-81
2023/09/15 00:40:11;;;;;;;;;3.00;3.00;;;;;28.87;41.66;101551.50;5036500;28;45454;-80
2023/09/15 00:42:37;;;;;;;;;4.00;4.00;;;;;28.90;41.79;101551.09;5022053;28;45312;-81
2023/09/15 00:45:09;;;;;;;;;4.00;4.00;;;;;28.91;42.05;101552.75;5016358;28;45356;-81
2023/09/15 00:47:35;;;;;;;;;4.00;4.00;;;;;28.85;41.78;101555.25;5033852;28;45326;-81
2023/09/15 00:50:05;;;;;;;;;3.33;3.33;;;;;28.90;41.65;101553.78;5019125;28;45542;-81
2023/09/15 00:52:33;;;;;;;;;3.00;3.00;;;;;28.87;41.75;101549.66;5036689;28;46415;-81
2023/09/15 00:54:59;;;;;;;;;4.00;4.00;;;;;28.79;41.58;101533.81;5018386;28;45333;-80
2023/09/15 00:57:26;;;;;;;;;4.33;4.33;;;;;28.81;41.67;101540.59;5035705;28;45297;-81
2023/09/15 00:59:52;;;;;;;;;4.00;4.00;;;;;28.87;41.70;101540.81;5035932;28;45248;-81
2023/09/15 01:02:18;;;;;;;;;2.67;2.33;;;;;28.76;41.40;101524.34;5034924;28;45393;-81
2023/09/15 01:04:44;;;;;;;;;5.00;4.00;;;;;28.75;42.15;101530.75;5036047;28;45365;-81
2023/09/15 01:07:10;;;;;;;;;3.00;3.00;;;;;28.75;42.08;101520.03;5035645;28;45384;-81
2023/09/15 01:09:36;;;;;;;;;4.00;4.00;;;;;28.78;41.74;101529.50;5035985;28;45422;-81
2023/09/15 01:12:04;;;;;;;;;4.33;4.33;;;;;28.79;41.81;101523.94;5018541;28;46333;-81
2023/09/15 01:14:30;;;;;;;;;4.33;4.00;;;;;28.87;41.62;101538.13;5034946;28;45412;-81
2023/09/15 01:17:18;;;;;;;;;3.00;3.00;;;;;28.91;41.89;101547.41;5035394;28;45258;-81
2023/09/15 01:20:11;;;;;;;;;3.67;3.67;;;;;28.92;41.69;101551.72;5035860;28;45660;-81
2023/09/15 01:23:00;;;;;;;;;5.33;4.67;;;;;28.92;41.42;101543.66;5035018;28;45262;-81
2023/09/15 01:25:40;;;;;;;;;3.67;3.67;;;;;28.91;41.66;101547.41;5017965;28;45503;-81
2023/09/15 01:28:28;;;;;;;;;5.00;5.00;;;;;28.79;41.58;101526.63;5035148;28;45353;-81
2023/09/15 01:30:54;;;;;;;;;3.00;3.00;;;;;28.81;41.79;101523.72;5035975;28;45558;-81
2023/09/15 01:33:21;;;;;;;;;3.00;3.00;;;;;28.79;41.70;101518.56;5034681;28;45499;-81
2023/09/15 01:35:46;;;;;;;;;3.33;3.33;;;;;28.82;41.89;101523.53;5035620;28;45420;-81
2023/09/15 01:38:12;;;;;;;;;4.00;4.00;;;;;28.92;41.62;101532.97;5017876;28;45377;-81
2023/09/15 01:40:37;;;;;;;;;4.33;4.33;;;;;28.80;41.76;101508.69;5017806;28;45544;-80
2023/09/15 01:43:03;;;;;;;;;2.67;2.67;;;;;28.63;41.63;101488.56;5017767;28;45806;-81
2023/09/15 01:45:29;;;;;;;;;4.00;4.00;;;;;28.79;41.88;101512.41;5016691;28;45316;-81
2023/09/15 01:47:57;;;;;;;;;4.00;4.00;;;;;28.91;41.77;101528.66;5036426;28;45306;-82
2023/09/15 01:50:23;;;;;;;;;4.00;4.00;;;;;28.69;41.72;101497.59;5035802;28;45356;-82
2023/09/15 01:52:50;;;;;;;;;3.33;3.33;;;;;28.91;41.39;101534.81;5034915;28;46421;-81
2023/09/15 01:55:16;;;;;;;;;5.00;3.33;;;;;28.77;42.25;101504.59;5035604;28;45360;-81
2023/09/15 01:57:41;;;;;;;;;3.00;3.00;;;;;28.92;41.89;101527.59;5034874;28;45348;-81
2023/09/15 02:00:08;;;;;;;;;6.00;4.00;;;;;28.80;41.76;101509.53;5034589;28;45617;-81
2023/09/15 02:02:33;;;;;;;;;2.33;2.33;;;;;28.81;41.64;101508.47;5036286;28;46367;-81
2023/09/15 02:04:59;;;;;;;;;5.00;2.67;;;;;28.75;41.91;101495.94;5038868;28;45326;-82
2023/09/15 02:07:24;;;;;;;;;5.67;5.00;;;;;28.88;42.11;101516.50;5038330;28;45219;-82
2023/09/15 02:09:49;;;;;;;;;5.00;4.33;;;;;28.91;41.90;101523.28;5038748;28;45211;-81
2023/09/15 02:12:15;;;;;;;;;4.00;4.00;;;;;28.83;41.49;101516.31;5020228;28;46541;-80
2023/09/15 02:14:41;;;;;;;;;3.67;3.00;;;;;28.78;41.94;101498.19;5038289;28;45214;-80
2023/09/15 02:17:06;;;;;;;;;4.67;3.00;;;;;28.82;42.24;101511.97;5037701;28;45412;-81
2023/09/15 02:19:31;;;;;;;;;4.67;3.67;;;;;28.83;41.67;101516.31;5038962;28;45296;-81
2023/09/15 02:22:00;;;;;;;;;4.33;4.00;;;;;28.88;41.82;101516.50;5020356;28;47033;-81
2023/09/15 02:24:26;;;;;;;;;6.00;4.67;;;;;28.89;41.95;101522.66;5020575;28;45453;-81
2023/09/15 02:26:51;;;;;;;;;5.00;4.00;;;;;28.52;41.39;101454.41;5037672;28;45404;-81
2023/09/15 02:29:17;;;;;;;;;2.67;2.67;;;;;28.84;41.67;101500.03;5020930;28;45394;-81
2023/09/15 02:31:42;;;;;;;;;4.00;4.00;;;;;28.85;41.76;101499.00;5038462;28;45481;-81
2023/09/15 02:34:08;;;;;;;;;3.00;3.00;;;;;28.81;41.71;101487.06;5020411;28;45410;-81
2023/09/15 02:36:33;;;;;;;;;4.00;4.00;;;;;28.93;41.27;101507.84;5038677;28;45427;-81
2023/09/15 02:38:58;;;;;;;;;5.33;5.00;;;;;28.84;41.25;101493.84;5037727;28;45419;-80
2023/09/15 02:41:24;;;;;;;;;4.33;4.33;;;;;28.72;41.64;101473.09;5033678;28;45639;-80
2023/09/15 02:43:49;;;;;;;;;3.67;3.67;;;;;28.92;41.68;101501.66;5000733;28;45460;-81
2023/09/15 02:46:15;;;;;;;;;3.00;1.67;;;;;28.92;41.44;101500.81;5025634;28;45298;-81
2023/09/15 02:48:43;;;;;;;;;2.33;2.33;;;;;28.79;41.61;101474.91;5038130;28;45558;-81
2023/09/15 02:51:10;;;;;;;;;3.67;3.67;;;;;28.81;41.87;101478.19;5038298;28;46236;-81
2023/09/15 02:53:35;;;;;;;;;4.67;4.67;;;;;28.77;41.71;101472.47;5038263;28;45344;-81
2023/09/15 02:56:05;;;;;;;;;3.00;3.00;;;;;28.65;41.47;101452.72;5037137;28;45371;-82
2023/09/15 02:58:33;;;;;;;;;5.00;4.67;;;;;28.82;41.93;101477.16;5038251;28;45443;-82
2023/09/15 03:00:59;;;;;;;;;3.00;3.00;;;;;28.80;41.93;101461.31;5020346;28;46352;-81
2023/09/15 03:03:24;;;;;;;;;4.00;4.00;;;;;28.82;41.65;101479.84;5037752;28;45458;-81
2023/09/15 03:06:01;;;;;;;;;3.67;3.67;;;;;28.91;41.99;101485.81;5038127;28;45813;-82
2023/09/15 03:08:28;;;;;;;;;2.00;2.00;;;;;28.65;41.77;101447.38;5037833;28;45629;-81
2023/09/15 03:10:53;;;;;;;;;3.00;3.00;;;;;28.78;41.50;101467.94;5037540;28;47006;-80
2023/09/15 03:13:19;;;;;;;;;4.33;3.00;;;;;28.81;41.72;101472.84;5036908;28;45823;-80
2023/09/15 03:15:45;;;;;;;;;3.00;3.00;;;;;28.82;41.72;101471.81;5038162;28;45326;-81
2023/09/15 03:18:11;;;;;;;;;4.00;4.00;;;;;28.88;41.80;101478.19;5037094;28;45286;-81
2023/09/15 03:20:36;;;;;;;;;4.33;2.67;;;;;28.76;41.64;101459.25;5037152;28;46469;-81
2023/09/15 03:23:02;;;;;;;;;3.00;3.00;;;;;28.85;41.71;101485.63;5038091;28;45200;-82
2023/09/15 03:25:28;;;;;;;;;4.67;3.67;;;;;28.73;41.52;101452.47;5036276;28;45373;-82
2023/09/15 03:27:53;;;;;;;;;3.33;3.33;;;;;28.89;42.10;101472.59;5037259;28;45584;-81
2023/09/15 03:30:18;;;;;;;;;4.00;4.00;;;;;28.89;41.90;101471.78;5036169;28;45791;-81
2023/09/15 03:32:44;;;;;;;;;5.00;4.67;;;;;28.85;41.64;101474.91;5019947;28;45564;-81
2023/09/15 03:35:10;;;;;;;;;4.00;4.00;;;;;28.83;41.71;101465.44;5036551;28;45426;-81
2023/09/15 03:37:35;;;;;;;;;5.00;4.00;;;;;28.76;41.63;101446.69;5037491;28;45551;-81
2023/09/15 03:40:02;;;;;;;;;3.33;3.33;;;;;28.83;41.42;101460.88;5019248;28;45601;-79
2023/09/15 03:42:27;;;;;;;;;7.00;5.00;;;;;28.79;41.73;101445.47;5021243;28;45338;-81
2023/09/15 03:44:53;;;;;;;;;4.00;4.00;;;;;28.87;41.66;101463.13;4997842;28;45831;-81
2023/09/15 03:47:18;;;;;;;;;3.00;3.00;;;;;28.85;41.65;101449.97;5029733;28;45293;-81
2023/09/15 03:49:43;;;;;;;;;4.00;4.00;;;;;28.90;41.66;101460.88;5037199;28;45348;-81
2023/09/15 03:52:09;;;;;;;;;3.00;3.00;;;;;28.88;41.55;101457.59;5037701;28;45428;-81
2023/09/15 03:54:34;;;;;;;;;3.67;3.67;;;;;28.90;41.69;101463.56;5037300;28;45312;-81
2023/09/15 03:56:59;;;;;;;;;3.67;3.00;;;;;28.75;41.46;101431.69;5037523;28;45390;-82
2023/09/15 03:59:25;;;;;;;;;3.00;3.00;;;;;28.89;41.76;101453.84;5037190;28;46254;-82
2023/09/15 04:01:50;;;;;;;;;5.00;3.00;;;;;28.73;41.79;101428.38;5037246;28;45375;-81
2023/09/15 04:04:15;;;;;;;;;3.67;3.67;;;;;28.88;41.41;101451.41;5037152;28;45320;-82
2023/09/15 04:06:41;;;;;;;;;2.00;2.00;;;;;28.88;41.62;101443.38;5037380;28;45461;-82
2023/09/15 04:09:12;;;;;;;;;4.67;4.67;;;;;28.66;41.58;101415.03;5036177;28;46624;-81
2023/09/15 04:11:39;;;;;;;;;4.67;3.00;;;;;28.87;41.71;101436.34;5036959;28;45433;-82
2023/09/15 04:14:05;;;;;;;;;3.00;3.00;;;;;28.77;41.62;101426.94;5037133;28;45342;-81
2023/09/15 04:16:30;;;;;;;;;3.00;2.00;;;;;28.86;41.51;101438.22;5037055;28;45412;-81
2023/09/15 04:18:56;;;;;;;;;3.33;3.33;;;;;28.87;41.82;101433.69;5036700;28;47086;-81
2023/09/15 04:21:21;;;;;;;;;3.00;3.00;;;;;28.87;41.94;101433.69;5036927;28;45394;-81
2023/09/15 04:23:47;;;;;;;;;4.00;3.67;;;;;28.82;41.73;101432.47;5036731;28;45775;-82
2023/09/15 04:26:12;;;;;;;;;4.33;4.33;;;;;28.87;41.58;101433.69;5036476;28;45237;-81
2023/09/15 04:28:37;;;;;;;;;2.00;2.00;;;;;28.86;41.32;101427.50;5036769;28;46353;-81
2023/09/15 04:31:03;;;;;;;;;3.67;3.00;;;;;28.87;41.89;101425.66;5036824;28;45434;-81
2023/09/15 04:33:28;;;;;;;;;3.67;3.67;;;;;28.67;41.87;101397.13;5036725;28;45676;-82
2023/09/15 04:35:54;;;;;;;;;3.00;3.00;;;;;28.87;41.56;101422.97;5018897;28;45459;-82
2023/09/15 04:38:19;;;;;;;;;3.00;3.00;;;;;28.87;41.70;101418.44;5036226;28;45871;-81
2023/09/15 04:40:44;;;;;;;;;4.00;4.00;;;;;28.87;41.93;101420.28;5035906;28;45317;-81
2023/09/15 04:43:12;;;;;;;;;4.67;4.00;;;;;28.87;41.87;101415.75;4998945;28;45405;-81
2023/09/15 04:45:38;;;;;;;;;3.67;3.67;;;;;28.83;41.67;101415.34;5001031;28;45483;-81
2023/09/15 04:48:04;;;;;;;;;3.00;3.00;;;;;28.80;41.63;101410.44;5036247;28;45425;-81
2023/09/15 04:50:29;;;;;;;;;4.00;4.00;;;;;28.85;41.62;101409.81;5029127;28;45285;-81
2023/09/15 04:52:55;;;;;;;;;4.00;4.00;;;;;28.83;41.09;101410.00;4996604;28;45389;-81
2023/09/15 04:55:22;;;;;;;;;2.00;2.00;;;;;28.74;41.75;101390.69;4996129;28;45390;-81
2023/09/15 04:57:47;;;;;;;;;3.67;3.67;;;;;28.80;41.52;101397.06;4996449;28;45377;-81
2023/09/15 05:00:21;;;;;;;;;4.00;4.00;;;;;28.73;41.58;101382.88;4979680;28;45357;-81
2023/09/15 05:02:46;;;;;;;;;4.00;2.00;;;;;28.76;41.63;101387.78;5001868;28;45219;-81
2023/09/15 05:05:12;;;;;;;;;4.33;4.33;;;;;28.88;41.78;101400.53;5016340;28;45198;-82
2023/09/15 05:07:38;;;;;;;;;3.33;3.33;;;;;28.77;41.63;101388.63;5015558;28;46630;-81
2023/09/15 05:10:04;;;;;;;;;4.00;4.00;;;;;28.87;41.50;101402.38;5047916;28;45956;-81
2023/09/15 05:12:29;;;;;;;;;2.00;2.00;;;;;28.86;41.46;101406.06;5016851;28;45419;-81
2023/09/15 05:14:56;;;;;;;;;3.00;3.00;;;;;28.79;41.41;101394.56;5016119;28;45667;-81
2023/09/15 05:17:22;;;;;;;;;4.00;4.00;;;;;28.81;41.64;101401.38;5026476;28;46735;-80
2023/09/15 05:19:49;;;;;;;;;3.00;3.00;;;;;28.72;41.53;101375.88;5035882;28;45383;-80
2023/09/15 05:22:14;;;;;;;;;4.00;4.00;;;;;28.74;41.76;101371.13;5036848;28;45480;-81
2023/09/15 05:24:40;;;;;;;;;3.00;3.00;;;;;28.73;41.51;101380.19;5036107;28;45356;-81
2023/09/15 05:27:05;;;;;;;;;5.00;5.00;;;;;28.78;41.57;101387.59;5034210;28;45297;-76
2023/09/15 05:29:30;;;;;;;;;4.00;4.00;;;;;28.77;41.60;101391.31;5035839;28;45320;-81
2023/09/15 05:31:56;;;;;;;;;4.00;4.00;;;;;28.85;41.62;101409.81;5036065;28;45373;-83
2023/09/15 05:34:21;;;;;;;;;6.00;6.00;;;;;28.73;39.07;101401.59;5036326;28;45286;-78
2023/09/15 05:36:46;;;;;;;;;33.75;32.00;;;;;28.39;38.50;101391.03;5032638;28;57038;-84
2023/09/15 05:39:12;;;;;;;;;15.00;15.00;;;;;28.22;38.07;101402.16;5035536;28;45370;-85
2023/09/15 05:41:37;;;;;;;;;11.00;11.00;;;;;27.87;37.87;101391.75;5038728;28;45570;-77
2023/09/15 05:44:03;;;;;;;;;9.00;9.00;;;;;27.71;38.80;101401.78;5036269;28;45368;-76
2023/09/15 05:46:28;;;;;;;;;10.00;7.00;;;;;27.52;38.51;101412.25;5033948;28;46617;-82
2023/09/15 05:48:53;;;;;;;;;8.33;7.33;;;;;27.25;38.63;101398.84;5028673;28;45329;-79
2023/09/15 05:51:19;;;;;;;;;8.00;7.67;;;;;27.09;39.02;101408.06;5034255;28;45300;-77
2023/09/15 05:53:44;;;;;;;;;7.00;6.00;;;;;26.83;38.54;101400.56;5035718;28;45305;-78
2023/09/15 05:56:10;;;;;;;;;8.00;6.00;;;;;26.79;39.04;101409.16;5035699;28;46931;-78
2023/09/15 05:58:35;;;;;;;;;5.67;5.67;;;;;26.62;38.83;101402.31;5035330;28;45375;-73
2023/09/15 06:01:01;;;;;;;;;5.00;5.00;;;;;26.59;39.03;101410.75;5035579;28;45482;-75
2023/09/15 06:03:26;;;;;;;;;5.33;3.67;;;;;26.54;39.49;101405.19;5035328;28;45300;-74
2023/09/15 06:05:52;;;;;;;;;5.00;5.00;;;;;26.51;39.82;101394.91;5034803;28;47119;-77
2023/09/15 06:08:20;;;;;;;;;6.00;6.00;;;;;26.73;39.14;101405.44;5035245;28;45308;-76
2023/09/15 06:10:49;;;;;;;;;7.00;7.00;;;;;26.90;39.10;101405.13;5035446;28;45344;-75
2023/09/15 06:13:15;;;;;;;;;3.33;3.33;;;;;27.01;39.41;101393.84;5035074;28;45533;-75
2023/09/15 06:15:41;;;;;;;;;5.00;5.00;;;;;27.16;39.07;101390.22;5035084;28;45687;-75
2023/09/15 06:18:06;;;;;;;;;6.33;5.00;;;;;27.41;39.35;101405.66;5035069;28;45428;-76
2023/09/15 06:20:33;;;;;;;;;4.33;4.33;;;;;27.59;39.25;101405.06;5033651;28;45420;-75
2023/09/15 06:22:59;;;;;;;;;4.67;3.67;;;;;27.62;39.07;101383.28;5035323;28;45542;-76
2023/09/15 06:25:24;;;;;;;;;6.67;4.67;;;;;27.92;38.75;101397.28;5034806;28;46450;-75
2023/09/15 06:27:49;;;;;;;;;5.00;5.00;;;;;27.98;38.63;101390.25;5035253;28;45407;-75
2023/09/15 06:30:15;;;;;;;;;6.00;6.00;;;;;28.23;38.38;101403.00;5034157;28;45462;-75
2023/09/15 06:32:41;;;;;;;;;2.00;2.00;;;;;28.27;38.57;101393.50;5033743;28;45618;-75
2023/09/15 06:35:06;;;;;;;;;6.67;5.33;;;;;28.31;38.33;101389.41;5034604;28;45947;-76
2023/09/15 06:37:31;;;;;;;;;4.00;4.00;;;;;28.44;38.56;101398.41;5034863;28;45462;-75
2023/09/15 06:39:57;;;;;;;;;5.67;4.33;;;;;28.61;38.35;101412.16;5034871;28;45343;-76
2023/09/15 06:42:22;;;;;;;;;5.00;5.00;;;;;28.65;38.37;101405.34;5034899;28;46751;-76
2023/09/15 06:44:47;;;;;;;;;4.33;2.67;;;;;28.67;38.67;101402.47;5034768;28;45432;-76
2023/09/15 06:47:13;;;;;;;;;5.00;5.00;;;;;28.65;38.72;101399.19;5034565;28;45408;-76
2023/09/15 06:49:38;;;;;;;;;5.67;5.00;;;;;28.70;38.80;101399.38;5037374;28;45393;-75
2023/09/15 06:52:05;;;;;;;;;3.67;3.67;;;;;28.79;38.37;101405.28;5038259;28;45492;-76
2023/09/15 06:54:30;;;;;;;;;4.00;3.00;;;;;28.71;38.41;101388.44;5038232;28;47456;-75
2023/09/15 06:56:55;;;;;;;;;4.33;4.33;;;;;28.74;38.64;101393.38;5037929;28;45406;-75
2023/09/15 06:59:21;;;;;;;;;6.00;6.00;;;;;28.85;38.77;101404.44;5038175;28;45340;-75
2023/09/15 07:01:46;;;;;;;;;4.00;4.00;;;;;28.89;38.87;101402.97;5038285;28;45386;-75
2023/09/15 07:04:13;;;;;;;;;5.00;5.00;;;;;28.85;38.55;101399.09;5037444;28;46195;-76
2023/09/15 07:06:39;;;;;;;;;8.33;4.67;;;;;28.91;38.97;101400.09;5037966;28;45504;-76
2023/09/15 07:09:05;;;;;;;;;5.00;5.00;;;;;28.95;38.82;101398.63;5038028;28;45284;-75
2023/09/15 07:11:30;;;;;;;;;4.67;4.67;;;;;28.98;38.70;101408.09;5037976;28;45365;-76
2023/09/15 07:13:55;;;;;;;;;6.00;5.00;;;;;28.95;38.86;101402.13;5037699;28;46015;-77
2023/09/15 07:16:21;;;;;;;;;3.33;3.33;;;;;28.98;38.77;101395.53;5038062;28;45291;-76
2023/09/15 07:18:46;;;;;;;;;5.00;5.00;;;;;28.77;38.95;101348.47;5019735;28;45344;-75
2023/09/15 07:21:11;;;;;;;;;4.00;4.00;;;;;29.02;39.13;101387.88;5037607;28;50684;-76
2023/09/15 07:23:37;;;;;;;;;4.00;4.00;;;;;29.11;39.38;101394.66;5037616;28;46090;-76
2023/09/15 07:26:02;;;;;;;;;5.67;5.00;;;;;29.15;38.95;101398.53;5037563;28;45241;-76
2023/09/15 07:28:27;;;;;;;;;5.00;4.00;;;;;29.20;39.44;101402.44;5037765;28;45222;-76
2023/09/15 07:31:10;;;;;;;;;6.67;5.00;;;;;29.21;39.07;101399.53;5037496;28;45214;-76
2023/09/15 07:33:35;;;;;;;;;2.33;2.00;;;;;29.26;39.03;101405.06;5037471;28;47207;-75
2023/09/15 07:36:03;;;;;;;;;6.00;4.00;;;;;29.30;38.82;101400.09;5037523;28;45382;-76
2023/09/15 07:38:29;;;;;;;;;6.33;6.00;;;;;29.31;38.98;101399.06;5037646;28;45234;-76
2023/09/15 07:40:55;;;;;;;;;5.33;5.33;;;;;29.36;39.26;101395.72;5037569;28;45512;-76
2023/09/15 07:43:20;;;;;;;;;5.00;5.00;;;;;29.37;39.19;101397.38;5018227;28;46510;-76
2023/09/15 07:45:46;;;;;;;;;4.67;4.00;;;;;29.46;38.96;101393.38;5020373;28;45476;-76
2023/09/15 07:48:12;;;;;;;;;8.67;6.00;;;;;29.49;38.86;101392.94;5037517;28;45462;-76
2023/09/15 07:50:37;;;;;;;;;3.00;3.00;;;;;29.50;39.13;101389.22;5037376;28;45329;-76
2023/09/15 07:53:03;;;;;;;;;4.00;3.00;;;;;29.51;39.01;101377.44;5037481;28;46000;-76
2023/09/15 07:55:29;;;;;;;;;6.33;5.00;;;;;29.47;39.17;101368.22;5037353;28;45443;-76
2023/09/15 07:57:54;;;;;;;;;4.33;4.00;;;;;29.56;39.08;101376.78;5037266;28;45381;-75
2023/09/15 08:00:19;;;;;;;;;5.00;4.00;;;;;29.65;38.98;101374.66;5035847;28;45432;-76
2023/09/15 08:02:44;;;;;;;;;4.00;4.00;;;;;29.59;38.86;101362.94;5036802;28;47215;-75
2023/09/15 08:05:11;;;;;;;;;6.00;4.67;;;;;29.68;39.03;101365.34;5037010;28;45378;-75
2023/09/15 08:07:36;;;;;;;;;2.67;2.67;;;;;29.66;38.81;101362.91;5037220;28;45492;-75
2023/09/15 08:10:02;;;;;;;;;2.00;2.00;;;;;29.76;38.79;101369.66;5037102;28;45315;-75
2023/09/15 08:12:27;;;;;;;;;3.67;3.67;;;;;29.81;38.80;101376.00;5037154;28;46950;-76
2023/09/15 08:14:53;;;;;;;;;4.67;4.67;;;;;29.74;38.76;101353.78;5036611;28;45355;-76
2023/09/15 08:17:18;;;;;;;;;6.67;6.00;;;;;29.65;38.72;101325.56;5037113;28;45320;-76
2023/09/15 08:19:44;;;;;;;;;5.33;5.00;;;;;29.90;38.62;101370.34;5037018;28;45602;-75
2023/09/15 08:22:09;;;;;;;;;3.33;3.33;;;;;29.93;38.94;101357.31;5036912;28;46107;-75
2023/09/15 08:24:34;;;;;;;;;6.00;6.00;;;;;29.90;38.51;101348.91;5036838;28;45265;-76
2023/09/15 08:26:59;;;;;;;;;4.33;3.00;;;;;29.97;38.74;101355.00;5018451;28;45391;-76
2023/09/15 08:29:25;;;;;;;;;4.00;4.00;;;;;29.87;38.69;101333.25;5036642;28;45327;-75
2023/09/15 08:31:50;;;;;;;;;5.00;5.00;;;;;29.98;38.72;101353.16;5036817;28;46420;-76
2023/09/15 08:34:15;;;;;;;;;5.00;4.00;;;;;30.05;38.81;101357.41;5036679;28;45334;-75
2023/09/15 08:36:41;;;;;;;;;5.33;4.67;;;;;30.09;38.75;101363.13;5036833;28;45400;-76
2023/09/15 08:39:07;;;;;;;;;4.00;4.00;;;;;30.02;38.80;101343.59;5036583;28;45409;-75
2023/09/15 08:41:42;;;;;;;;;5.00;4.00;;;;;30.11;38.82;101352.19;5032131;28;47062;-76
2023/09/15 08:44:11;;;;;;;;;3.00;3.00;;;;;30.10;38.57;101348.69;5016193;28;45476;-75
2023/09/15 08:46:41;;;;;;;;;5.00;4.00;;;;;30.20;38.56;101350.81;5026810;28;45310;-75
2023/09/15 08:49:08;;;;;;;;;3.67;3.67;;;;;30.22;38.62;101353.28;5036627;28;45416;-75
2023/09/15 08:51:34;;;;;;;;;4.33;4.33;;;;;30.10;38.52;101335.25;5036260;28;46064;-76
2023/09/15 08:54:01;;;;;;;;;4.00;4.00;;;;;30.16;38.60;101345.06;5036080;28;45460;-76
2023/09/15 08:56:27;;;;;;;;;5.33;4.00;;;;;30.28;37.95;101358.59;5036370;28;45305;-75
2023/09/15 08:58:53;;;;;;;;;3.00;3.00;;;;;30.20;38.78;101344.63;5036111;28;45348;-75
2023/09/15 09:01:19;;;;;;;;;4.67;4.67;;;;;30.26;38.90;101344.56;5036132;28;46608;-76
2023/09/15 09:03:45;;;;;;;;;3.67;3.67;;;;;30.12;38.47;101326.97;5028084;28;45544;-76
2023/09/15 09:06:12;;;;;;;;;5.00;5.00;;;;;30.31;39.06;101354.63;5034904;28;45422;-76
2023/09/15 09:08:41;;;;;;;;;4.00;4.00;;;;;30.37;38.50;101367.16;5036212;28;45364;-75
2023/09/15 09:11:07;;;;;;;;;3.00;3.00;;;;;30.39;38.52;101361.59;5035712;28;45390;-76
2023/09/15 09:13:33;;;;;;;;;4.00;4.00;;;;;30.06;38.75;101326.00;5035726;28;45367;-76
2023/09/15 09:15:59;;;;;;;;;4.00;3.00;;;;;30.37;38.54;101353.75;5036016;28;45402;-76
2023/09/15 09:18:24;;;;;;;;;5.00;4.33;;;;;30.36;38.58;101345.94;5034606;28;45552;-76
2023/09/15 09:20:50;;;;;;;;;5.00;5.00;;;;;30.42;38.67;101358.44;5035681;28;45510;-76
2023/09/15 09:23:20;;;;;;;;;4.33;4.33;;;;;30.45;38.46;101359.84;5036075;28;45401;-76
2023/09/15 09:25:46;;;;;;;;;5.00;4.00;;;;;30.48;38.62;101360.22;5035986;28;45315;-76
2023/09/15 09:28:12;;;;;;;;;5.00;5.00;;;;;30.48;38.57;101344.13;5033787;28;45515;-75
2023/09/15 09:30:38;;;;;;;;;5.67;5.67;;;;;30.37;38.66;101339.53;5034336;28;47567;-75
2023/09/15 09:33:05;;;;;;;;;5.00;4.00;;;;;30.49;38.56;101351.13;5035784;28;45236;-75
2023/09/15 09:35:30;;;;;;;;;6.00;5.33;;;;;30.51;38.68;101351.72;5036115;28;45399;-76
2023/09/15 09:37:59;;;;;;;;;4.33;4.33;;;;;30.52;38.64;101350.66;5035763;28;45797;-76
2023/09/15 09:40:25;;;;;;;;;2.00;2.00;;;;;30.50;38.22;101347.38;5035913;28;45495;-76
2023/09/15 09:42:52;;;;;;;;;4.00;4.00;;;;;30.44;38.61;101331.38;5030723;28;45353;-76
2023/09/15 09:45:24;;;;;;;;;6.00;4.33;;;;;30.49;38.80;101348.44;5015822;28;45396;-76
2023/09/15 09:47:50;;;;;;;;;4.00;4.00;;;;;30.47;38.71;101338.97;5015711;28;45409;-75
2023/09/15 09:50:15;;;;;;;;;4.00;4.00;;;;;30.47;38.89;101341.66;5015469;28;46864;-76
2023/09/15 09:52:41;;;;;;;;;2.33;2.00;;;;;30.47;38.59;101336.31;5015630;28;45334;-75
2023/09/15 09:55:08;;;;;;;;;4.33;3.00;;;;;30.54;38.50;101349.63;5015671;28;45597;-75
2023/09/15 09:57:36;;;;;;;;;5.33;3.00;;;;;30.51;38.64;101345.53;5015326;28;45361;-75
2023/09/15 10:00:03;;;;;;;;;4.00;4.00;;;;;30.45;38.42;101336.50;5015272;28;46276;-76
2023/09/15 10:02:29;;;;;;;;;3.00;3.00;;;;;30.52;38.49;101341.81;5015097;28;45365;-75
2023/09/15 10:04:54;;;;;;;;;4.33;4.33;;;;;30.52;38.50;101331.88;5015530;28;45351;-76
2023/09/15 10:07:20;;;;;;;;;4.67;4.67;;;;;30.40;38.60;101314.88;5030767;28;45558;-75
2023/09/15 10:09:46;;;;;;;;;5.33;5.33;;;;;30.34;38.72;101300.53;5015578;28;46223;-77
2023/09/15 10:12:13;;;;;;;;;5.00;5.00;;;;;30.40;38.46;101318.41;5015067;28;45324;-76
2023/09/15 10:14:39;;;;;;;;;4.00;4.00;;;;;30.48;38.65;101324.50;5015318;28;45370;-77
2023/09/15 10:17:05;;;;;;;;;6.00;5.00;;;;;30.43;38.59;101324.34;5015175;28;45376;-76
2023/09/15 10:19:31;;;;;;;;;4.00;4.00;;;;;30.10;38.93;101264.69;5015010;28;46375;-76
2023/09/15 10:21:57;;;;;;;;;4.00;4.00;;;;;30.36;38.52;101302.97;5015219;28;45390;-76
2023/09/15 10:24:23;;;;;;;;;4.33;2.33;;;;;30.34;38.80;101308.59;5017857;28;45379;-76
2023/09/15 10:26:48;;;;;;;;;3.33;3.33;;;;;30.34;38.44;101294.34;5018287;28;45297;-76
2023/09/15 10:29:14;;;;;;;;;3.00;3.00;;;;;30.40;39.10;101307.66;5018611;28;46347;-77
2023/09/15 10:31:41;;;;;;;;;4.00;4.00;;;;;30.29;39.02;101290.44;5018815;28;45716;-76
2023/09/15 10:34:07;;;;;;;;;4.00;4.00;;;;;30.28;38.83;101293.34;5018780;28;45407;-75
2023/09/15 10:36:33;;;;;;;;;3.00;3.00;;;;;30.32;38.86;101293.72;5018668;28;45354;-76
2023/09/15 10:39:09;;;;;;;;;3.00;3.00;;;;;30.32;38.99;101297.22;5018221;28;46972;-76
2023/09/15 10:41:34;;;;;;;;;4.33;3.33;;;;;30.30;39.11;101285.88;5022420;28;45357;-76
2023/09/15 10:43:59;;;;;;;;;3.00;3.00;;;;;30.13;39.14;101256.19;5038178;28;45651;-75
2023/09/15 10:46:35;;;;;;;;;2.00;2.00;;;;;30.32;39.35;101299.09;5038249;28;45391;-75
2023/09/15 10:49:16;;;;;;;;;4.67;4.67;;;;;30.28;39.11;101285.28;5038331;28;46213;-76
2023/09/15 10:51:56;;;;;;;;;3.00;3.00;;;;;30.25;39.09;101285.75;5038161;28;45384;-76
2023/09/15 10:54:24;;;;;;;;;4.67;2.67;;;;;30.23;39.37;101277.94;5038019;28;45403;-76
2023/09/15 10:56:50;;;;;;;;;4.33;4.33;;;;;30.22;39.32;101272.78;5038219;28;45230;-75
2023/09/15 10:59:18;;;;;;;;;2.67;2.00;;;;;30.23;39.27;101267.19;5038032;28;46551;-77
2023/09/15 11:01:44;;;;;;;;;3.00;3.00;;;;;30.22;38.87;101270.91;5036934;28;45487;-77
2023/09/15 11:04:17;;;;;;;;;3.00;3.00;;;;;30.22;39.18;101265.53;5037986;28;45416;-76
2023/09/15 11:06:48;;;;;;;;;4.00;4.00;;;;;30.19;39.27;101266.00;5037976;28;45567;-77
2023/09/15 11:09:14;;;;;;;;;4.00;4.00;;;;;30.14;39.25;101252.44;5037471;28;46441;-75
2023/09/15 11:11:49;;;;;;;;;5.00;5.00;;;;;30.16;39.29;101264.59;5037800;28;45246;-76
2023/09/15 11:14:16;;;;;;;;;3.67;3.67;;;;;30.15;39.38;101254.09;5037942;28;45337;-75
2023/09/15 11:16:50;;;;;;;;;4.67;4.33;;;;;30.13;39.42;101257.00;5037720;28;45389;-77
2023/09/15 11:19:17;;;;;;;;;3.67;3.00;;;;;30.12;39.31;101250.00;5036904;28;45628;-76
2023/09/15 11:21:45;;;;;;;;;2.00;2.00;;;;;30.06;39.49;101245.50;5037092;28;45305;-76